sensor_id;sensor_type;location;lat;lon;timestamp;temperature;humidity
30063;DHT22;16889;67.864;24.990;2022-12-07T00:03:04;-11.60;99.90
30063;DHT22;16889;67.864;24.990;2022-12-07T00:07:50;-12.00;99.90
30063;DHT22;16889;67.864;24.990;2022-12-07T00:12:36;-12.00;99.90
30063;DHT22;16889;67.864;24.990;2022-12-07T00:17:22;-12.10;99.90
30063;DHT22;16889;67.864;24.990;2022-12-07T00:22:08;-12.30;99.90
30063;DHT22;16889;67.864;24.990;2022-12-07T00:26:54;-12.30;99.90
30063;DHT22;16889;67.864;24.990;2022-12-07T00:31:40;-12.20;99.90
30063;DHT22;16889;67.864;24.990;2022-12-07T00:36:26;-12.10;99.90
30063;DHT22;16889;67.864;24.990;2022-12-07T00:41:17;-12.50;99.90
30063;DHT22;16889;67.864;24.990;2022-12-07T00:46:04;-12.40;99.90
30063;DHT22;16889;67.864;24.990;2022-12-07T00:50:51;-12.60;99.90
30063;DHT22;16889;67.864;24.990;2022-12-07T00:55:37;-12.90;99.90
30063;DHT22;16889;67.864;24.990;2022-12-07T01:00:23;-12.90;99.90
30063;DHT22;16889;67.864;24.990;2022-12-07T01:05:09;-13.10;99.90
30063;DHT22;16889;67.864;24.990;2022-12-07T01:09:55;-13.10;99.90
30063;DHT22;16889;67.864;24.990;2022-12-07T01:14:41;-13.00;99.90
30063;DHT22;16889;67.864;24.990;2022-12-07T01:19:27;-13.00;99.90
30063;DHT22;16889;67.864;24.990;2022-12-07T01:24:13;-13.20;99.90
30063;DHT22;16889;67.864;24.990;2022-12-07T01:28:59;-13.10;99.90
30063;DHT22;16889;67.864;24.990;2022-12-07T01:33:50;-12.90;99.90
30063;DHT22;16889;67.864;24.990;2022-12-07T01:38:37;-12.50;99.90
30063;DHT22;16889;67.864;24.990;2022-12-07T01:43:26;-12.50;99.90
30063;DHT22;16889;67.864;24.990;2022-12-07T01:48:16;-12.50;99.90
30063;DHT22;16889;67.864;24.990;2022-12-07T01:53:06;-12.20;99.90
30063;DHT22;16889;67.864;24.990;2022-12-07T01:57:54;-11.80;99.90
30063;DHT22;16889;67.864;24.990;2022-12-07T02:03:49;-11.50;99.90
30063;DHT22;16889;67.864;24.990;2022-12-07T02:08:04;-11.20;99.90
30063;DHT22;16889;67.864;24.990;2022-12-07T02:13:02;-11.00;99.90
30063;DHT22;16889;67.864;24.990;2022-12-07T02:23:29;-10.70;99.90
30063;DHT22;16889;67.864;24.990;2022-12-07T02:28:36;-10.50;99.90
30063;DHT22;16889;67.864;24.990;2022-12-07T02:33:29;-10.50;99.90
30063;DHT22;16889;67.864;24.990;2022-12-07T02:48:14;-10.40;99.90
30063;DHT22;16889;67.864;24.990;2022-12-07T02:53:02;-10.50;99.90
30063;DHT22;16889;67.864;24.990;2022-12-07T03:02:58;-10.60;99.90
30063;DHT22;16889;67.864;24.990;2022-12-07T03:12:56;-10.40;99.90
30063;DHT22;16889;67.864;24.990;2022-12-07T03:17:45;-10.40;99.90
30063;DHT22;16889;67.864;24.990;2022-12-07T03:22:34;-10.50;99.90
30063;DHT22;16889;67.864;24.990;2022-12-07T03:27:39;-10.40;99.90
30063;DHT22;16889;67.864;24.990;2022-12-07T03:32:36;-10.30;99.90
30063;DHT22;16889;67.864;24.990;2022-12-07T03:37:47;-10.20;99.90
30063;DHT22;16889;67.864;24.990;2022-12-07T03:42:35;-10.40;99.90
30063;DHT22;16889;67.864;24.990;2022-12-07T03:52:23;-10.20;99.90
30063;DHT22;16889;67.864;24.990;2022-12-07T03:57:12;-10.00;99.90
30063;DHT22;16889;67.864;24.990;2022-12-07T04:02:04;-9.80;99.90
30063;DHT22;16889;67.864;24.990;2022-12-07T04:06:50;-9.70;99.90
30063;DHT22;16889;67.864;24.990;2022-12-07T04:11:36;-9.70;99.90
30063;DHT22;16889;67.864;24.990;2022-12-07T04:16:22;-9.70;99.90
30063;DHT22;16889;67.864;24.990;2022-12-07T04:21:08;-9.80;99.90
30063;DHT22;16889;67.864;24.990;2022-12-07T04:25:54;-10.00;99.90
30063;DHT22;16889;67.864;24.990;2022-12-07T04:30:40;-9.70;99.90
30063;DHT22;16889;67.864;24.990;2022-12-07T04:35:26;-9.70;99.90
30063;DHT22;16889;67.864;24.990;2022-12-07T04:40:12;-9.80;99.90
30063;DHT22;16889;67.864;24.990;2022-12-07T04:44:59;-9.80;99.90
30063;DHT22;16889;67.864;24.990;2022-12-07T04:49:45;-9.70;99.90
30063;DHT22;16889;67.864;24.990;2022-12-07T04:54:31;-9.60;99.90
30063;DHT22;16889;67.864;24.990;2022-12-07T04:59:18;-9.50;99.90
30063;DHT22;16889;67.864;24.990;2022-12-07T05:04:04;-9.40;99.90
30063;DHT22;16889;67.864;24.990;2022-12-07T05:08:50;-9.50;99.90
30063;DHT22;16889;67.864;24.990;2022-12-07T05:13:36;-9.30;99.90
30063;DHT22;16889;67.864;24.990;2022-12-07T05:18:22;-9.30;99.90
30063;DHT22;16889;67.864;24.990;2022-12-07T05:23:09;-9.20;99.90
30063;DHT22;16889;67.864;24.990;2022-12-07T05:27:56;-9.00;99.90
30063;DHT22;16889;67.864;24.990;2022-12-07T05:32:42;-9.00;99.90
30063;DHT22;16889;67.864;24.990;2022-12-07T05:37:28;-8.90;99.90
30063;DHT22;16889;67.864;24.990;2022-12-07T05:42:14;-8.90;99.90
30063;DHT22;16889;67.864;24.990;2022-12-07T05:47:00;-9.00;99.90
30063;DHT22;16889;67.864;24.990;2022-12-07T05:51:46;-9.10;99.90
30063;DHT22;16889;67.864;24.990;2022-12-07T05:56:32;-9.00;99.90
30063;DHT22;16889;67.864;24.990;2022-12-07T06:01:18;-9.00;99.90
30063;DHT22;16889;67.864;24.990;2022-12-07T06:06:04;-8.80;99.90
30063;DHT22;16889;67.864;24.990;2022-12-07T06:10:50;-8.70;99.90
30063;DHT22;16889;67.864;24.990;2022-12-07T06:15:56;-8.80;99.90
30063;DHT22;16889;67.864;24.990;2022-12-07T06:20:42;-8.70;99.90
30063;DHT22;16889;67.864;24.990;2022-12-07T06:25:28;-8.80;99.90
30063;DHT22;16889;67.864;24.990;2022-12-07T06:30:14;-8.80;99.90
30063;DHT22;16889;67.864;24.990;2022-12-07T06:35:00;-8.70;99.90
30063;DHT22;16889;67.864;24.990;2022-12-07T06:39:46;-8.80;99.90
30063;DHT22;16889;67.864;24.990;2022-12-07T06:44:32;-8.70;99.90
30063;DHT22;16889;67.864;24.990;2022-12-07T06:49:18;-8.60;99.90
30063;DHT22;16889;67.864;24.990;2022-12-07T06:54:04;-8.60;99.90
30063;DHT22;16889;67.864;24.990;2022-12-07T06:58:50;-8.70;99.90
30063;DHT22;16889;67.864;24.990;2022-12-07T07:03:37;-8.70;99.90
30063;DHT22;16889;67.864;24.990;2022-12-07T07:08:23;-8.80;99.90
30063;DHT22;16889;67.864;24.990;2022-12-07T07:13:09;-8.80;99.90
30063;DHT22;16889;67.864;24.990;2022-12-07T07:17:55;-8.80;99.90
30063;DHT22;16889;67.864;24.990;2022-12-07T07:22:42;-8.90;99.90
30063;DHT22;16889;67.864;24.990;2022-12-07T07:27:27;-8.70;99.90
30063;DHT22;16889;67.864;24.990;2022-12-07T07:32:14;-8.70;99.90
30063;DHT22;16889;67.864;24.990;2022-12-07T07:37:00;-8.70;99.90
30063;DHT22;16889;67.864;24.990;2022-12-07T07:41:47;-8.70;99.90
30063;DHT22;16889;67.864;24.990;2022-12-07T07:46:33;-8.60;99.90
30063;DHT22;16889;67.864;24.990;2022-12-07T07:51:19;-8.50;99.90
30063;DHT22;16889;67.864;24.990;2022-12-07T07:56:05;-8.50;99.90
30063;DHT22;16889;67.864;24.990;2022-12-07T08:00:51;-8.50;99.90
30063;DHT22;16889;67.864;24.990;2022-12-07T08:05:37;-8.30;99.90
30063;DHT22;16889;67.864;24.990;2022-12-07T08:10:23;-8.30;99.90
30063;DHT22;16889;67.864;24.990;2022-12-07T08:15:10;-8.30;99.90
30063;DHT22;16889;67.864;24.990;2022-12-07T08:19:56;-8.20;99.90
30063;DHT22;16889;67.864;24.990;2022-12-07T08:24:42;-8.10;99.90
30063;DHT22;16889;67.864;24.990;2022-12-07T08:29:28;-8.20;99.90
30063;DHT22;16889;67.864;24.990;2022-12-07T08:34:14;-8.10;99.90
30063;DHT22;16889;67.864;24.990;2022-12-07T08:39:00;-8.30;99.90
30063;DHT22;16889;67.864;24.990;2022-12-07T08:43:46;-8.50;99.90
30063;DHT22;16889;67.864;24.990;2022-12-07T08:48:33;-8.50;99.90
30063;DHT22;16889;67.864;24.990;2022-12-07T08:53:20;-8.30;99.90
30063;DHT22;16889;67.864;24.990;2022-12-07T08:58:06;-8.30;99.90
30063;DHT22;16889;67.864;24.990;2022-12-07T09:02:53;-8.20;99.90
30063;DHT22;16889;67.864;24.990;2022-12-07T09:07:40;-8.20;99.90
30063;DHT22;16889;67.864;24.990;2022-12-07T09:12:26;-8.20;99.90
30063;DHT22;16889;67.864;24.990;2022-12-07T09:17:13;-8.10;99.90
30063;DHT22;16889;67.864;24.990;2022-12-07T09:21:59;-8.10;99.90
30063;DHT22;16889;67.864;24.990;2022-12-07T09:26:45;-8.10;99.90
30063;DHT22;16889;67.864;24.990;2022-12-07T09:31:31;-8.00;99.90
30063;DHT22;16889;67.864;24.990;2022-12-07T09:36:17;-7.90;99.90
30063;DHT22;16889;67.864;24.990;2022-12-07T09:41:07;-7.90;99.90
30063;DHT22;16889;67.864;24.990;2022-12-07T09:45:54;-7.80;99.90
30063;DHT22;16889;67.864;24.990;2022-12-07T09:50:43;-7.90;99.90
30063;DHT22;16889;67.864;24.990;2022-12-07T09:55:30;-7.90;99.90
30063;DHT22;16889;67.864;24.990;2022-12-07T10:00:19;-7.80;99.90
30063;DHT22;16889;67.864;24.990;2022-12-07T10:05:14;-7.80;99.90
30063;DHT22;16889;67.864;24.990;2022-12-07T10:10:04;-7.80;99.90
30063;DHT22;16889;67.864;24.990;2022-12-07T10:15:02;-7.80;99.90
30063;DHT22;16889;67.864;24.990;2022-12-07T10:19:54;-7.70;99.90
30063;DHT22;16889;67.864;24.990;2022-12-07T10:24:53;-7.70;99.90
30063;DHT22;16889;67.864;24.990;2022-12-07T10:29:39;-7.70;99.90
30063;DHT22;16889;67.864;24.990;2022-12-07T10:34:36;-7.70;99.90
30063;DHT22;16889;67.864;24.990;2022-12-07T10:39:23;-7.60;99.90
30063;DHT22;16889;67.864;24.990;2022-12-07T10:44:24;-7.60;99.90
30063;DHT22;16889;67.864;24.990;2022-12-07T11:04:33;-7.50;99.90
30063;DHT22;16889;67.864;24.990;2022-12-07T11:24:57;-7.30;99.90
30063;DHT22;16889;67.864;24.990;2022-12-07T11:30:00;-7.30;99.90
30063;DHT22;16889;67.864;24.990;2022-12-07T11:39:46;-7.40;99.90
30063;DHT22;16889;67.864;24.990;2022-12-07T11:54:47;-7.30;99.90
30063;DHT22;16889;67.864;24.990;2022-12-07T11:59:45;-7.20;99.90
30063;DHT22;16889;67.864;24.990;2022-12-07T12:09:41;-7.20;99.90
30063;DHT22;16889;67.864;24.990;2022-12-07T12:19:42;-7.30;99.90
30063;DHT22;16889;67.864;24.990;2022-12-07T12:24:32;-7.40;99.90
30063;DHT22;16889;67.864;24.990;2022-12-07T12:29:33;-7.40;99.90
30063;DHT22;16889;67.864;24.990;2022-12-07T12:39:17;-7.20;99.90
30063;DHT22;16889;67.864;24.990;2022-12-07T12:54:28;-7.20;99.90
30063;DHT22;16889;67.864;24.990;2022-12-07T12:59:26;-7.20;99.90
30063;DHT22;16889;67.864;24.990;2022-12-07T13:24:27;-7.20;99.90
30063;DHT22;16889;67.864;24.990;2022-12-07T13:29:18;-7.20;99.90
30063;DHT22;16889;67.864;24.990;2022-12-07T13:34:28;-7.10;99.90
30063;DHT22;16889;67.864;24.990;2022-12-07T13:44:13;-7.10;99.90
30063;DHT22;16889;67.864;24.990;2022-12-07T13:48:59;-7.10;99.90
30063;DHT22;16889;67.864;24.990;2022-12-07T13:53:51;-7.10;99.90
30063;DHT22;16889;67.864;24.990;2022-12-07T13:58:37;-7.20;99.90
30063;DHT22;16889;67.864;24.990;2022-12-07T14:03:32;-7.20;99.90
30063;DHT22;16889;67.864;24.990;2022-12-07T14:13:32;-7.20;99.90
30063;DHT22;16889;67.864;24.990;2022-12-07T14:18:27;-7.20;99.90
30063;DHT22;16889;67.864;24.990;2022-12-07T14:23:27;-7.20;99.90
30063;DHT22;16889;67.864;24.990;2022-12-07T14:28:30;-7.20;99.90
30063;DHT22;16889;67.864;24.990;2022-12-07T14:33:17;-7.20;99.90
30063;DHT22;16889;67.864;24.990;2022-12-07T14:38:04;-7.20;99.90
30063;DHT22;16889;67.864;24.990;2022-12-07T14:43:13;-7.20;99.90
30063;DHT22;16889;67.864;24.990;2022-12-07T14:48:01;-7.20;99.90
30063;DHT22;16889;67.864;24.990;2022-12-07T14:52:56;-7.30;99.90
30063;DHT22;16889;67.864;24.990;2022-12-07T14:57:44;-7.30;99.90
30063;DHT22;16889;67.864;24.990;2022-12-07T15:02:30;-7.30;99.90
30063;DHT22;16889;67.864;24.990;2022-12-07T15:07:20;-7.20;99.90
30063;DHT22;16889;67.864;24.990;2022-12-07T15:12:07;-7.20;99.90
30063;DHT22;16889;67.864;24.990;2022-12-07T15:16:53;-7.10;99.90
30063;DHT22;16889;67.864;24.990;2022-12-07T15:21:39;-7.10;99.90
30063;DHT22;16889;67.864;24.990;2022-12-07T15:26:25;-7.20;99.90
30063;DHT22;16889;67.864;24.990;2022-12-07T15:31:15;-7.10;99.90
30063;DHT22;16889;67.864;24.990;2022-12-07T15:36:02;-7.00;99.90
30063;DHT22;16889;67.864;24.990;2022-12-07T15:40:48;-7.10;99.90
30063;DHT22;16889;67.864;24.990;2022-12-07T15:45:34;-7.10;99.90
30063;DHT22;16889;67.864;24.990;2022-12-07T15:50:20;-7.10;99.90
30063;DHT22;16889;67.864;24.990;2022-12-07T15:55:07;-6.90;99.90
30063;DHT22;16889;67.864;24.990;2022-12-07T15:59:53;-7.00;99.90
30063;DHT22;16889;67.864;24.990;2022-12-07T16:04:39;-7.10;99.90
30063;DHT22;16889;67.864;24.990;2022-12-07T16:09:25;-7.10;99.90
30063;DHT22;16889;67.864;24.990;2022-12-07T16:14:12;-7.10;99.90
30063;DHT22;16889;67.864;24.990;2022-12-07T16:18:58;-7.00;99.90
30063;DHT22;16889;67.864;24.990;2022-12-07T16:23:44;-7.10;99.90
30063;DHT22;16889;67.864;24.990;2022-12-07T16:28:30;-7.00;99.90
30063;DHT22;16889;67.864;24.990;2022-12-07T16:33:16;-6.80;99.90
30063;DHT22;16889;67.864;24.990;2022-12-07T16:38:02;-6.90;99.90
30063;DHT22;16889;67.864;24.990;2022-12-07T16:42:48;-7.00;99.90
30063;DHT22;16889;67.864;24.990;2022-12-07T16:47:37;-7.10;99.90
30063;DHT22;16889;67.864;24.990;2022-12-07T16:52:23;-6.90;99.90
30063;DHT22;16889;67.864;24.990;2022-12-07T16:57:10;-6.90;99.90
30063;DHT22;16889;67.864;24.990;2022-12-07T17:18:59;-7.10;99.90
30063;DHT22;16889;67.864;24.990;2022-12-07T17:23:47;-7.00;99.90
30063;DHT22;16889;67.864;24.990;2022-12-07T17:28:36;-7.00;99.90
30063;DHT22;16889;67.864;24.990;2022-12-07T17:33:22;-7.00;99.90
30063;DHT22;16889;67.864;24.990;2022-12-07T17:38:08;-7.00;99.90
30063;DHT22;16889;67.864;24.990;2022-12-07T17:42:54;-7.00;99.90
30063;DHT22;16889;67.864;24.990;2022-12-07T17:47:40;-7.00;99.90
30063;DHT22;16889;67.864;24.990;2022-12-07T17:52:26;-7.00;99.90
30063;DHT22;16889;67.864;24.990;2022-12-07T17:57:30;-7.00;99.90
30063;DHT22;16889;67.864;24.990;2022-12-07T18:02:17;-7.00;99.90
30063;DHT22;16889;67.864;24.990;2022-12-07T18:07:03;-6.90;99.90
30063;DHT22;16889;67.864;24.990;2022-12-07T18:11:51;-6.90;99.90
30063;DHT22;16889;67.864;24.990;2022-12-07T18:16:37;-6.90;99.90
30063;DHT22;16889;67.864;24.990;2022-12-07T18:21:27;-6.80;99.90
30063;DHT22;16889;67.864;24.990;2022-12-07T18:26:13;-6.90;99.90
30063;DHT22;16889;67.864;24.990;2022-12-07T18:31:00;-6.80;99.90
30063;DHT22;16889;67.864;24.990;2022-12-07T18:35:46;-6.80;99.90
30063;DHT22;16889;67.864;24.990;2022-12-07T18:40:32;-6.80;99.90
30063;DHT22;16889;67.864;24.990;2022-12-07T18:45:18;-6.80;99.90
30063;DHT22;16889;67.864;24.990;2022-12-07T18:50:05;-6.80;99.90
30063;DHT22;16889;67.864;24.990;2022-12-07T18:54:51;-6.80;99.90
30063;DHT22;16889;67.864;24.990;2022-12-07T18:59:37;-6.90;99.90
30063;DHT22;16889;67.864;24.990;2022-12-07T19:04:33;-6.80;99.90
30063;DHT22;16889;67.864;24.990;2022-12-07T19:09:19;-6.80;99.90
30063;DHT22;16889;67.864;24.990;2022-12-07T19:14:05;-6.70;99.90
30063;DHT22;16889;67.864;24.990;2022-12-07T19:18:51;-6.70;99.90
30063;DHT22;16889;67.864;24.990;2022-12-07T19:23:37;-6.70;99.90
30063;DHT22;16889;67.864;24.990;2022-12-07T19:28:23;-6.70;99.90
30063;DHT22;16889;67.864;24.990;2022-12-07T19:33:09;-6.80;99.90
30063;DHT22;16889;67.864;24.990;2022-12-07T19:37:55;-6.60;99.90
30063;DHT22;16889;67.864;24.990;2022-12-07T19:42:41;-6.70;99.90
30063;DHT22;16889;67.864;24.990;2022-12-07T19:47:27;-6.60;99.90
30063;DHT22;16889;67.864;24.990;2022-12-07T19:52:13;-6.50;99.90
30063;DHT22;16889;67.864;24.990;2022-12-07T19:56:59;-6.50;99.90
30063;DHT22;16889;67.864;24.990;2022-12-07T20:01:46;-6.50;99.90
30063;DHT22;16889;67.864;24.990;2022-12-07T20:06:32;-6.50;99.90
30063;DHT22;16889;67.864;24.990;2022-12-07T20:11:19;-6.40;99.90
30063;DHT22;16889;67.864;24.990;2022-12-07T20:16:24;-6.30;99.90
30063;DHT22;16889;67.864;24.990;2022-12-07T20:21:10;-6.30;99.90
30063;DHT22;16889;67.864;24.990;2022-12-07T20:26:01;-6.30;99.90
30063;DHT22;16889;67.864;24.990;2022-12-07T20:30:50;-6.30;99.90
30063;DHT22;16889;67.864;24.990;2022-12-07T20:35:36;-6.40;99.90
30063;DHT22;16889;67.864;24.990;2022-12-07T20:40:22;-6.30;99.90
30063;DHT22;16889;67.864;24.990;2022-12-07T20:45:08;-6.40;99.90
30063;DHT22;16889;67.864;24.990;2022-12-07T20:49:56;-6.30;99.90
30063;DHT22;16889;67.864;24.990;2022-12-07T20:54:42;-6.20;99.90
30063;DHT22;16889;67.864;24.990;2022-12-07T20:59:28;-6.10;99.90
30063;DHT22;16889;67.864;24.990;2022-12-07T21:04:14;-6.10;99.90
30063;DHT22;16889;67.864;24.990;2022-12-07T21:09:01;-6.00;99.90
30063;DHT22;16889;67.864;24.990;2022-12-07T21:13:47;-6.00;99.90
30063;DHT22;16889;67.864;24.990;2022-12-07T21:18:33;-6.10;99.90
30063;DHT22;16889;67.864;24.990;2022-12-07T21:23:19;-6.10;99.90
30063;DHT22;16889;67.864;24.990;2022-12-07T21:28:05;-6.10;99.90
30063;DHT22;16889;67.864;24.990;2022-12-07T21:32:51;-6.10;99.90
30063;DHT22;16889;67.864;24.990;2022-12-07T21:37:37;-6.00;99.90
30063;DHT22;16889;67.864;24.990;2022-12-07T21:42:24;-6.00;99.90
30063;DHT22;16889;67.864;24.990;2022-12-07T21:47:10;-6.00;99.90
30063;DHT22;16889;67.864;24.990;2022-12-07T21:51:56;-6.10;99.90
30063;DHT22;16889;67.864;24.990;2022-12-07T21:56:42;-6.00;99.90
30063;DHT22;16889;67.864;24.990;2022-12-07T22:01:34;-5.90;99.90
30063;DHT22;16889;67.864;24.990;2022-12-07T22:06:23;-5.90;99.90
30063;DHT22;16889;67.864;24.990;2022-12-07T22:11:11;-5.80;99.90
30063;DHT22;16889;67.864;24.990;2022-12-07T22:15:57;-5.90;99.90
30063;DHT22;16889;67.864;24.990;2022-12-07T22:20:43;-5.80;99.90
30063;DHT22;16889;67.864;24.990;2022-12-07T22:25:29;-5.90;99.90
30063;DHT22;16889;67.864;24.990;2022-12-07T22:30:15;-5.80;99.90
30063;DHT22;16889;67.864;24.990;2022-12-07T22:35:01;-5.80;99.90
30063;DHT22;16889;67.864;24.990;2022-12-07T22:39:47;-6.10;99.90
30063;DHT22;16889;67.864;24.990;2022-12-07T22:44:33;-6.20;99.90
30063;DHT22;16889;67.864;24.990;2022-12-07T22:49:19;-6.10;99.90
30063;DHT22;16889;67.864;24.990;2022-12-07T22:54:07;-6.00;99.90
30063;DHT22;16889;67.864;24.990;2022-12-07T22:58:53;-6.00;99.90
30063;DHT22;16889;67.864;24.990;2022-12-07T23:03:40;-6.00;99.90
30063;DHT22;16889;67.864;24.990;2022-12-07T23:08:26;-5.90;99.90
30063;DHT22;16889;67.864;24.990;2022-12-07T23:13:14;-6.00;99.90
30063;DHT22;16889;67.864;24.990;2022-12-07T23:18:22;-6.00;99.90
30063;DHT22;16889;67.864;24.990;2022-12-07T23:23:08;-5.90;99.90
30063;DHT22;16889;67.864;24.990;2022-12-07T23:27:54;-5.90;99.90
30063;DHT22;16889;67.864;24.990;2022-12-07T23:32:40;-5.90;99.90
30063;DHT22;16889;67.864;24.990;2022-12-07T23:37:26;-5.90;99.90
30063;DHT22;16889;67.864;24.990;2022-12-07T23:42:12;-5.90;99.90
30063;DHT22;16889;67.864;24.990;2022-12-07T23:46:58;-6.00;99.90
30063;DHT22;16889;67.864;24.990;2022-12-07T23:51:44;-6.00;99.90
30063;DHT22;16889;67.864;24.990;2022-12-07T23:56:32;-6.00;99.90
